Time;durP1;ratioP1;P1;durP2;ratioP2;P2;SDS_P1;SDS_P2;PMS_P1;PMS_P2;Temp;Humidity;BMP_temperature;BMP_pressure;BME280_temperature;BME280_humidity;BME280_pressure;Samples;Min_cycle;Max_cycle;Signal;HPM_P1;HPM_P2
2022/08/06 06:11:31;;;;;;;3.85;3.05;;;;;;;;;;6259540;22;20252;-90
2022/08/06 06:13:57;;;;;;;3.72;3.10;;;;;;;;;;6309191;22;20015;-82
2022/08/06 06:16:25;;;;;;;3.08;2.85;;;;;;;;;;6308828;22;20008;-84
2022/08/06 06:19:08;;;;;;;2.88;2.45;;;;;;;;;;6308901;22;20011;-83
2022/08/06 06:21:51;;;;;;;3.45;2.67;;;;;;;;;;6309294;22;20079;-89
2022/08/06 06:24:31;;;;;;;2.78;2.58;;;;;;;;;;6309868;22;20004;-88
2022/08/06 09:01:58;;;;;;;2.58;2.35;;;;;;;;;;6265765;22;20082;-89
2022/08/06 09:04:25;;;;;;;3.25;2.20;;;;;;;;;;6247119;23;20012;-86
2022/08/06 09:06:51;;;;;;;2.70;2.50;;;;;;;;;;6246458;23;20004;-88
2022/08/06 09:09:17;;;;;;;2.58;2.38;;;;;;;;;;6225443;23;20442;-88
2022/08/06 09:11:43;;;;;;;2.60;2.40;;;;;;;;;;6216125;23;20005;-85
2022/08/06 09:14:08;;;;;;;2.90;2.60;;;;;;;;;;6216693;23;20015;-86
2022/08/06 09:16:36;;;;;;;2.63;2.42;;;;;;;;;;6217521;23;20004;-89
2022/08/06 09:19:04;;;;;;;3.70;3.40;;;;;;;;;;6217901;23;19996;-88
2022/08/06 09:21:31;;;;;;;2.83;2.63;;;;;;;;;;6217987;23;20031;-88
2022/08/06 09:23:57;;;;;;;3.35;2.67;;;;;;;;;;6217871;23;20004;-89
2022/08/06 09:26:22;;;;;;;2.40;2.20;;;;;;;;;;6216323;23;20008;-87
2022/08/06 09:28:48;;;;;;;3.70;2.53;;;;;;;;;;6218071;23;20059;-88
2022/08/06 09:31:17;;;;;;;2.55;2.35;;;;;;;;;;6217729;23;20032;-89
2022/08/06 09:33:53;;;;;;;2.60;2.40;;;;;;;;;;6217903;23;20023;-87
2022/08/06 09:36:19;;;;;;;2.65;2.45;;;;;;;;;;6218100;23;20011;-83
2022/08/06 09:38:50;;;;;;;2.92;2.45;;;;;;;;;;6217928;23;20435;-86
2022/08/06 09:41:17;;;;;;;3.75;2.58;;;;;;;;;;6218148;23;20054;-84
2022/08/06 09:43:48;;;;;;;2.80;2.60;;;;;;;;;;6217737;23;20011;-87
2022/08/06 09:46:14;;;;;;;2.60;2.40;;;;;;;;;;6217763;23;20007;-88
2022/08/06 09:48:57;;;;;;;2.70;2.50;;;;;;;;;;6217661;23;20031;-87
2022/08/06 09:51:25;;;;;;;2.53;2.33;;;;;;;;;;6215902;23;20012;-83
2022/08/06 09:53:57;;;;;;;2.90;2.50;;;;;;;;;;6217871;23;20001;-91
2022/08/06 09:56:24;;;;;;;2.85;2.65;;;;;;;;;;6216323;23;20327;-89
2022/08/06 09:58:50;;;;;;;3.25;2.95;;;;;;;;;;6217516;23;20001;-93
2022/08/06 10:01:21;;;;;;;2.85;2.70;;;;;;;;;;6216672;23;20320;-92
2022/08/06 10:03:47;;;;;;;2.25;2.05;;;;;;;;;;6217839;23;20009;-88
2022/08/06 10:06:21;;;;;;;3.35;2.28;;;;;;;;;;6217813;23;20028;-92
2022/08/06 10:08:48;;;;;;;2.78;2.58;;;;;;;;;;6217835;23;20331;-86
2022/08/06 10:11:14;;;;;;;2.58;2.38;;;;;;;;;;6216166;23;20080;-91
2022/08/06 10:13:47;;;;;;;3.53;2.60;;;;;;;;;;6217608;23;20297;-90
2022/08/06 10:16:26;;;;;;;2.53;2.33;;;;;;;;;;6218415;23;20032;-86
2022/08/06 10:18:53;;;;;;;2.97;2.10;;;;;;;;;;6217828;23;20004;-90
2022/08/06 10:21:22;;;;;;;2.70;2.28;;;;;;;;;;6218761;23;20013;-89
2022/08/06 10:23:49;;;;;;;2.92;2.40;;;;;;;;;;6217579;23;20074;-89
2022/08/06 10:26:30;;;;;;;2.97;2.05;;;;;;;;;;6217782;23;20023;-92
2022/08/06 10:29:02;;;;;;;3.05;2.17;;;;;;;;;;6217532;23;20004;-87
2022/08/06 10:31:28;;;;;;;3.20;2.97;;;;;;;;;;6217701;23;20430;-92
2022/08/06 10:34:06;;;;;;;2.22;2.13;;;;;;;;;;6219152;23;20000;-88
2022/08/06 10:36:36;;;;;;;3.00;2.60;;;;;;;;;;6217302;23;20075;-87
2022/08/06 10:39:04;;;;;;;2.70;2.50;;;;;;;;;;6217153;23;20009;-86
2022/08/06 10:41:30;;;;;;;3.95;2.45;;;;;;;;;;6215643;23;20079;-86
2022/08/06 10:43:57;;;;;;;2.80;2.30;;;;;;;;;;6217883;23;20027;-86
2022/08/06 10:46:23;;;;;;;4.07;2.28;;;;;;;;;;6217324;23;20055;-86
2022/08/06 10:48:48;;;;;;;2.80;2.60;;;;;;;;;;6217085;23;20052;-87
2022/08/06 10:51:15;;;;;;;3.33;2.55;;;;;;;;;;6216849;23;20040;-85
2022/08/06 10:53:44;;;;;;;2.70;2.50;;;;;;;;;;6216839;23;20001;-85
2022/08/06 10:56:14;;;;;;;3.13;2.47;;;;;;;;;;6217632;23;20007;-88
2022/08/06 10:58:40;;;;;;;4.05;2.92;;;;;;;;;;6217116;23;20011;-87
2022/08/06 11:01:09;;;;;;;2.38;2.25;;;;;;;;;;6216064;23;20362;-89
2022/08/06 11:03:55;;;;;;;2.45;2.30;;;;;;;;;;6217077;23;20423;-93
2022/08/06 11:06:28;;;;;;;2.72;2.53;;;;;;;;;;6217141;23;20007;-91
2022/08/06 11:09:20;;;;;;;2.47;2.28;;;;;;;;;;6217285;23;20080;-83
2022/08/06 11:12:03;;;;;;;2.50;2.30;;;;;;;;;;6216846;23;20015;-88
2022/08/06 11:14:29;;;;;;;1.92;1.83;;;;;;;;;;6216885;23;20012;-88
2022/08/06 11:16:59;;;;;;;2.70;2.10;;;;;;;;;;6217395;23;20079;-91
2022/08/06 11:19:57;;;;;;;2.40;1.95;;;;;;;;;;6217786;23;20001;-87
2022/08/06 11:22:35;;;;;;;4.05;2.50;;;;;;;;;;6167049;23;20336;-90
2022/08/06 11:25:02;;;;;;;3.22;2.38;;;;;;;;;;6217156;23;20001;-82
2022/08/06 11:27:56;;;;;;;4.82;2.25;;;;;;;;;;6216366;23;20001;-88
2022/08/06 11:30:45;;;;;;;2.05;1.95;;;;;;;;;;6217043;23;20059;-82
2022/08/06 11:33:13;;;;;;;2.63;2.30;;;;;;;;;;6216704;23;20001;-83
2022/08/06 11:35:41;;;;;;;2.30;2.08;;;;;;;;;;6216292;23;20008;-80
2022/08/06 11:38:08;;;;;;;2.05;1.95;;;;;;;;;;6216440;23;20005;-78
2022/08/06 11:40:54;;;;;;;2.17;2.08;;;;;;;;;;6216482;23;20411;-88
2022/08/06 11:43:47;;;;;;;2.20;2.10;;;;;;;;;;6217274;23;20004;-86
2022/08/06 11:46:32;;;;;;;2.40;2.30;;;;;;;;;;6217410;23;20007;-94
2022/08/06 11:49:02;;;;;;;2.45;2.08;;;;;;;;;;6217917;23;20035;-90
2022/08/06 11:51:46;;;;;;;2.17;1.98;;;;;;;;;;6216906;23;20320;-92
2022/08/06 11:54:33;;;;;;;2.22;2.08;;;;;;;;;;6216586;23;20009;-94
2022/08/06 11:56:58;;;;;;;1.90;1.80;;;;;;;;;;6216984;23;20437;-92
2022/08/06 11:59:25;;;;;;;1.95;1.85;;;;;;;;;;6215442;23;20017;-90
2022/08/06 12:01:50;;;;;;;2.00;1.90;;;;;;;;;;6216430;23;20135;-93
2022/08/06 12:04:34;;;;;;;2.20;2.00;;;;;;;;;;6215143;23;20004;-93
2022/08/06 12:07:19;;;;;;;2.40;2.20;;;;;;;;;;6216892;23;20011;-94
2022/08/06 12:10:06;;;;;;;2.33;2.22;;;;;;;;;;6217013;23;20024;-93
2022/08/06 12:12:52;;;;;;;2.50;2.30;;;;;;;;;;6218097;23;20036;-84
2022/08/06 12:15:19;;;;;;;2.38;2.17;;;;;;;;;;6216997;23;20047;-94
2022/08/06 12:17:53;;;;;;;2.83;2.17;;;;;;;;;;6219009;23;20001;-92
2022/08/06 12:20:39;;;;;;;2.38;2.10;;;;;;;;;;6216680;23;20038;-93
2022/08/06 12:23:15;;;;;;;2.30;2.10;;;;;;;;;;6216318;23;20000;-87
2022/08/06 12:25:42;;;;;;;1.90;1.80;;;;;;;;;;6216382;23;20005;-92
2022/08/06 12:28:10;;;;;;;2.13;1.97;;;;;;;;;;6216425;23;20072;-92
2022/08/06 12:30:46;;;;;;;2.00;1.90;;;;;;;;;;6216973;23;20054;-90
2022/08/06 12:33:13;;;;;;;2.95;2.25;;;;;;;;;;6216540;23;20011;-90
2022/08/06 12:36:07;;;;;;;3.38;2.72;;;;;;;;;;6216374;23;20043;-91
2022/08/06 12:38:34;;;;;;;3.53;2.42;;;;;;;;;;6196965;23;20005;-89
2022/08/06 12:41:06;;;;;;;2.42;2.28;;;;;;;;;;6216304;23;20088;-92
2022/08/06 12:43:33;;;;;;;2.70;2.50;;;;;;;;;;6216568;23;20268;-90
2022/08/06 12:46:02;;;;;;;2.40;2.27;;;;;;;;;;6216208;23;20039;-89
2022/08/06 12:48:27;;;;;;;2.60;2.40;;;;;;;;;;6215866;23;20077;-88
2022/08/06 12:51:13;;;;;;;1.90;1.80;;;;;;;;;;6216912;23;20460;-89
2022/08/06 12:53:40;;;;;;;2.38;2.28;;;;;;;;;;6218015;23;20005;-85
2022/08/06 12:56:06;;;;;;;1.77;1.67;;;;;;;;;;6218040;23;20087;-87
2022/08/06 12:58:37;;;;;;;1.73;1.60;;;;;;;;;;6217719;23;19997;-92
2022/08/06 13:01:04;;;;;;;1.65;1.40;;;;;;;;;;6218391;23;20080;-82
2022/08/06 13:03:32;;;;;;;1.87;1.70;;;;;;;;;;6217869;23;20020;-88
2022/08/06 13:06:03;;;;;;;1.75;1.60;;;;;;;;;;6218157;23;20001;-83
2022/08/06 13:08:32;;;;;;;2.35;1.73;;;;;;;;;;6216489;23;20068;-88
2022/08/06 13:11:02;;;;;;;1.60;1.50;;;;;;;;;;6218879;23;20012;-90
2022/08/06 13:13:46;;;;;;;1.70;1.60;;;;;;;;;;6192222;23;20008;-82
2022/08/06 13:16:14;;;;;;;1.60;1.50;;;;;;;;;;6218265;23;20071;-83
2022/08/06 13:18:41;;;;;;;2.08;1.55;;;;;;;;;;6218417;23;20375;-84
2022/08/06 13:21:26;;;;;;;2.50;1.42;;;;;;;;;;6216855;23;20363;-84
2022/08/06 13:23:52;;;;;;;4.35;1.38;;;;;;;;;;6218060;23;20005;-86
2022/08/06 13:26:21;;;;;;;1.60;1.50;;;;;;;;;;6218754;23;19997;-82
2022/08/06 13:29:11;;;;;;;2.08;1.88;;;;;;;;;;6218114;23;20374;-82
2022/08/06 13:31:40;;;;;;;1.95;1.85;;;;;;;;;;6219209;23;20015;-88
2022/08/06 13:34:09;;;;;;;2.55;1.83;;;;;;;;;;6218288;23;20004;-84
2022/08/06 13:36:36;;;;;;;1.70;1.60;;;;;;;;;;6218773;23;20020;-93
2022/08/06 13:39:22;;;;;;;2.00;1.90;;;;;;;;;;6218032;23;20087;-86
2022/08/06 13:42:04;;;;;;;2.45;2.08;;;;;;;;;;6217693;23;20019;-86
2022/08/06 13:44:39;;;;;;;1.88;1.77;;;;;;;;;;6217665;23;20001;-87
2022/08/06 13:47:05;;;;;;;2.00;1.73;;;;;;;;;;6215990;23;20005;-84
2022/08/06 13:49:32;;;;;;;1.73;1.60;;;;;;;;;;6217969;23;20005;-82
2022/08/06 13:52:02;;;;;;;1.67;1.58;;;;;;;;;;6218189;23;20004;-92
2022/08/06 13:54:28;;;;;;;2.20;2.00;;;;;;;;;;6229674;23;20007;-84
2022/08/06 13:57:06;;;;;;;2.60;1.70;;;;;;;;;;6239639;22;20155;-89
2022/08/06 13:59:35;;;;;;;1.70;1.58;;;;;;;;;;6340559;22;20017;-83
2022/08/06 14:02:01;;;;;;;1.88;1.70;;;;;;;;;;6340735;22;20006;-92
2022/08/06 14:04:29;;;;;;;1.77;1.67;;;;;;;;;;6340539;22;20003;-81
2022/08/06 14:06:55;;;;;;;1.95;1.70;;;;;;;;;;6340849;22;20003;-81
2022/08/06 15:58:07;;;;;;;2.80;1.50;;;;;;;;;;6304027;22;20418;-89
2022/08/06 16:00:35;;;;;;;2.55;1.60;;;;;;;;;;6307629;22;20094;-87
2022/08/06 16:03:00;;;;;;;91.30;19.88;;;;;;;;;;6307011;22;20334;-87
2022/08/06 16:05:27;;;;;;;3.67;1.95;;;;;;;;;;6308637;22;20015;-86
2022/08/06 16:07:52;;;;;;;9.38;2.53;;;;;;;;;;6309095;22;20000;-84
2022/08/06 16:10:18;;;;;;;8.32;2.70;;;;;;;;;;6308503;22;20471;-87
2022/08/06 16:12:44;;;;;;;6.93;2.40;;;;;;;;;;6307214;22;20003;-89
2022/08/06 16:15:09;;;;;;;7.30;2.80;;;;;;;;;;6306260;22;20330;-84
2022/08/06 16:17:35;;;;;;;7.28;3.17;;;;;;;;;;6308159;22;20003;-85
2022/08/06 16:20:01;;;;;;;8.15;3.00;;;;;;;;;;6306503;22;20049;-84
2022/08/06 16:22:27;;;;;;;8.10;3.05;;;;;;;;;;6306669;22;20426;-82
2022/08/06 16:24:53;;;;;;;10.75;3.95;;;;;;;;;;6309037;22;20000;-87
2022/08/06 16:27:18;;;;;;;9.20;3.80;;;;;;;;;;6310610;22;20086;-88
2022/08/06 16:29:46;;;;;;;10.10;3.78;;;;;;;;;;6310654;22;20010;-86
2022/08/06 16:32:12;;;;;;;6.85;3.08;;;;;;;;;;6310750;22;20007;-91
2022/08/06 16:34:38;;;;;;;6.18;2.50;;;;;;;;;;6310840;22;20004;-88
2022/08/06 16:37:04;;;;;;;7.32;3.40;;;;;;;;;;6309279;22;20034;-88
2022/08/06 16:39:30;;;;;;;6.40;3.30;;;;;;;;;;6311153;22;20322;-88
2022/08/06 16:41:55;;;;;;;6.05;3.10;;;;;;;;;;6308991;22;20064;-87
2022/08/06 16:44:21;;;;;;;7.70;3.40;;;;;;;;;;6314276;22;20006;-86
2022/08/06 16:46:46;;;;;;;7.25;2.78;;;;;;;;;;6308580;22;20137;-88
2022/08/06 16:49:12;;;;;;;5.78;2.65;;;;;;;;;;6308425;22;20006;-88
2022/08/06 16:51:39;;;;;;;4.45;2.50;;;;;;;;;;6309867;22;20045;-87
2022/08/06 16:54:04;;;;;;;4.70;2.70;;;;;;;;;;6310194;22;20033;-86
2022/08/06 16:56:30;;;;;;;3.55;2.58;;;;;;;;;;6310061;22;20003;-85
2022/08/06 16:58:55;;;;;;;6.57;3.40;;;;;;;;;;6308288;22;20443;-85
2022/08/06 17:01:21;;;;;;;5.72;2.55;;;;;;;;;;6309625;22;20100;-81
2022/08/06 17:03:46;;;;;;;3.45;2.58;;;;;;;;;;6310382;22;20007;-89
2022/08/06 17:06:12;;;;;;;5.00;2.67;;;;;;;;;;6311166;22;20003;-91
2022/08/06 17:08:38;;;;;;;3.80;2.83;;;;;;;;;;6309320;22;20011;-92
2022/08/06 17:11:03;;;;;;;4.68;2.60;;;;;;;;;;6310560;22;20053;-94
2022/08/06 17:13:29;;;;;;;2.58;2.35;;;;;;;;;;6309087;22;20007;-90
2022/08/06 17:15:56;;;;;;;3.85;2.38;;;;;;;;;;6309591;22;19999;-91
2022/08/06 17:18:22;;;;;;;3.15;2.10;;;;;;;;;;6310225;22;20066;-88
2022/08/06 17:20:48;;;;;;;3.78;2.10;;;;;;;;;;6308590;22;20003;-88
2022/08/06 17:23:18;;;;;;;2.40;2.00;;;;;;;;;;6310296;22;20003;-86
2022/08/06 17:25:45;;;;;;;5.70;2.30;;;;;;;;;;6310307;22;20334;-88
2022/08/06 17:28:11;;;;;;;5.78;2.67;;;;;;;;;;6310089;22;19999;-87
2022/08/06 17:30:37;;;;;;;7.53;3.92;;;;;;;;;;6312679;22;20303;-91
2022/08/06 17:33:03;;;;;;;6.28;3.45;;;;;;;;;;6312279;22;20074;-90
2022/08/06 17:35:28;;;;;;;3.45;2.20;;;;;;;;;;6309720;22;20003;-92
2022/08/06 17:37:54;;;;;;;2.20;2.00;;;;;;;;;;6309690;22;20042;-84
2022/08/06 17:40:22;;;;;;;3.15;2.22;;;;;;;;;;6309695;22;20000;-85
2022/08/06 17:42:48;;;;;;;3.55;1.98;;;;;;;;;;6309770;22;19996;-84
2022/08/06 17:45:14;;;;;;;2.40;2.13;;;;;;;;;;6309652;22;20413;-88
2022/08/06 17:47:39;;;;;;;3.33;2.15;;;;;;;;;;6312196;22;20053;-89
2022/08/06 17:50:07;;;;;;;2.17;1.98;;;;;;;;;;6310477;22;20000;-88
2022/08/06 17:52:32;;;;;;;3.53;2.22;;;;;;;;;;6311186;22;20418;-86
2022/08/06 17:54:58;;;;;;;5.65;2.55;;;;;;;;;;6311138;22;20002;-89
2022/08/06 17:57:24;;;;;;;2.20;2.00;;;;;;;;;;6311548;22;20010;-89
2022/08/06 17:59:50;;;;;;;3.28;1.92;;;;;;;;;;6310983;22;20018;-91
2022/08/06 18:02:15;;;;;;;1.75;1.50;;;;;;;;;;6310660;22;20418;-93
2022/08/06 18:04:41;;;;;;;3.33;1.73;;;;;;;;;;6310395;22;20381;-90
2022/08/06 18:07:06;;;;;;;2.70;1.60;;;;;;;;;;6314932;22;20010;-92
2022/08/06 18:09:33;;;;;;;1.88;1.50;;;;;;;;;;6320073;22;20384;-95
2022/08/06 18:12:00;;;;;;;2.38;1.67;;;;;;;;;;6315547;22;20027;-91
2022/08/06 18:14:26;;;;;;;1.60;1.50;;;;;;;;;;6308381;22;20049;-89
2022/08/06 18:16:51;;;;;;;3.47;1.50;;;;;;;;;;6309196;22;20003;-88
2022/08/06 18:19:17;;;;;;;1.77;1.50;;;;;;;;;;6309365;22;20372;-88
2022/08/06 18:21:42;;;;;;;1.60;1.50;;;;;;;;;;6307425;22;20060;-88
2022/08/06 18:24:08;;;;;;;3.85;1.55;;;;;;;;;;6308677;22;20048;-89
2022/08/06 18:26:33;;;;;;;1.77;1.67;;;;;;;;;;6307743;22;20009;-89
2022/08/06 18:29:00;;;;;;;2.08;1.70;;;;;;;;;;6307850;22;20007;-87
2022/08/06 18:31:27;;;;;;;1.63;1.50;;;;;;;;;;6307338;22;20014;-88
2022/08/06 18:33:53;;;;;;;2.15;1.60;;;;;;;;;;6307502;22;20031;-87
2022/08/06 18:36:18;;;;;;;2.78;1.40;;;;;;;;;;6308174;22;20338;-90
2022/08/06 18:38:44;;;;;;;2.25;1.70;;;;;;;;;;6308173;22;20014;-92
2022/08/06 18:41:09;;;;;;;2.17;1.60;;;;;;;;;;6308843;22;20414;-93
2022/08/06 18:43:35;;;;;;;1.67;1.38;;;;;;;;;;6307876;22;20334;-90
2022/08/06 18:46:01;;;;;;;3.58;1.67;;;;;;;;;;6308912;22;20007;-92
2022/08/06 18:48:26;;;;;;;1.70;1.60;;;;;;;;;;6308182;22;20008;-92
2022/08/06 18:50:53;;;;;;;1.60;1.50;;;;;;;;;;6309668;22;20071;-93
2022/08/06 18:53:19;;;;;;;1.58;1.48;;;;;;;;;;6308933;22;20398;-95
2022/08/06 18:55:44;;;;;;;1.55;1.45;;;;;;;;;;6307414;22;19995;-93
2022/08/06 18:58:10;;;;;;;1.40;1.30;;;;;;;;;;6307841;22;20007;-91
2022/08/06 19:00:36;;;;;;;2.03;1.85;;;;;;;;;;6308381;22;20091;-92
2022/08/06 19:03:04;;;;;;;2.08;1.48;;;;;;;;;;6308021;22;20030;-92
2022/08/06 19:05:30;;;;;;;1.58;1.48;;;;;;;;;;6308193;22;20503;-92
2022/08/06 19:07:59;;;;;;;2.17;1.40;;;;;;;;;;6307952;22;20003;-92
2022/08/06 19:10:25;;;;;;;2.83;1.63;;;;;;;;;;6308113;22;20011;-91
2022/08/06 19:12:52;;;;;;;1.63;1.52;;;;;;;;;;6307578;22;20011;-92
2022/08/06 19:15:17;;;;;;;2.20;1.80;;;;;;;;;;6308492;22;20014;-92
2022/08/06 19:17:43;;;;;;;1.80;1.70;;;;;;;;;;6309302;22;19999;-91
2022/08/06 19:20:17;;;;;;;1.88;1.77;;;;;;;;;;6308307;22;20422;-93
2022/08/06 19:22:43;;;;;;;3.58;1.88;;;;;;;;;;6308900;22;20008;-90
2022/08/06 19:25:09;;;;;;;2.20;1.83;;;;;;;;;;6307193;22;20363;-91
2022/08/06 19:27:35;;;;;;;3.80;1.80;;;;;;;;;;6307351;22;20042;-90
2022/08/06 19:30:00;;;;;;;1.98;1.77;;;;;;;;;;6307493;22;20335;-91
2022/08/06 19:32:26;;;;;;;2.00;1.90;;;;;;;;;;6308657;22;20053;-94
2022/08/06 19:34:53;;;;;;;2.15;1.75;;;;;;;;;;6307311;22;20000;-89
2022/08/06 19:37:18;;;;;;;4.30;2.17;;;;;;;;;;6307069;22;20004;-90
2022/08/06 19:39:45;;;;;;;3.25;2.20;;;;;;;;;;6307472;22;20049;-91
2022/08/06 19:42:12;;;;;;;4.05;2.70;;;;;;;;;;6307181;22;20371;-91
2022/08/06 19:44:38;;;;;;;3.92;2.95;;;;;;;;;;6307504;22;20014;-90
2022/08/06 19:47:06;;;;;;;2.92;2.22;;;;;;;;;;6307788;22;20442;-91
2022/08/06 19:49:31;;;;;;;3.45;2.55;;;;;;;;;;6308204;22;20058;-92
2022/08/06 19:51:57;;;;;;;4.55;2.30;;;;;;;;;;6307952;22;20041;-92
2022/08/06 19:54:22;;;;;;;3.72;2.40;;;;;;;;;;6307978;22;20000;-92
2022/08/06 19:56:48;;;;;;;2.45;2.28;;;;;;;;;;6308099;22;19999;-92
2022/08/06 19:59:15;;;;;;;2.47;2.28;;;;;;;;;;6307958;22;20003;-92
2022/08/06 20:01:40;;;;;;;2.47;2.28;;;;;;;;;;6307513;22;20410;-92
2022/08/06 20:04:06;;;;;;;2.55;2.35;;;;;;;;;;6308060;22;20027;-92
2022/08/06 20:06:31;;;;;;;3.35;2.50;;;;;;;;;;6307741;22;20090;-92
2022/08/06 20:08:57;;;;;;;2.45;2.13;;;;;;;;;;6307734;22;19999;-92
2022/08/06 20:11:23;;;;;;;2.58;2.33;;;;;;;;;;6310160;22;20008;-92
2022/08/06 20:13:49;;;;;;;5.45;2.42;;;;;;;;;;6313493;22;20035;-91
2022/08/06 20:16:15;;;;;;;2.65;2.45;;;;;;;;;;6313344;22;20089;-93
2022/08/06 20:18:40;;;;;;;2.22;1.80;;;;;;;;;;6313101;22;20414;-91
2022/08/06 20:21:06;;;;;;;2.05;1.85;;;;;;;;;;6312999;22;20074;-92
2022/08/06 20:23:31;;;;;;;2.70;2.30;;;;;;;;;;6313222;22;20003;-92
2022/08/06 20:25:58;;;;;;;3.55;2.20;;;;;;;;;;6313151;22;19998;-92
2022/08/06 20:28:25;;;;;;;3.80;2.20;;;;;;;;;;6313157;22;20031;-91
2022/08/06 20:30:51;;;;;;;4.13;2.60;;;;;;;;;;6312535;22;20490;-90
2022/08/06 20:33:18;;;;;;;3.42;2.58;;;;;;;;;;6312661;22;20417;-91
2022/08/06 20:35:45;;;;;;;2.55;2.17;;;;;;;;;;6340586;22;20071;-91
2022/08/06 20:38:11;;;;;;;3.92;2.28;;;;;;;;;;6340122;22;19998;-91
2022/08/06 20:40:37;;;;;;;2.58;2.10;;;;;;;;;;6312687;22;20010;-90
2022/08/06 20:43:05;;;;;;;2.60;2.40;;;;;;;;;;6313171;22;20144;-92
2022/08/06 20:45:31;;;;;;;2.50;2.30;;;;;;;;;;6313138;22;20025;-91
2022/08/06 20:47:56;;;;;;;4.20;2.20;;;;;;;;;;6313217;22;20414;-92
2022/08/06 20:50:22;;;;;;;2.22;2.05;;;;;;;;;;6312954;22;19999;-92
2022/08/06 20:52:50;;;;;;;4.03;2.60;;;;;;;;;;6313184;22;20003;-93
2022/08/06 20:55:16;;;;;;;2.38;1.90;;;;;;;;;;6313007;22;19998;-94
2022/08/06 20:57:43;;;;;;;2.60;2.40;;;;;;;;;;6313091;22;20010;-92
2022/08/06 21:00:15;;;;;;;3.10;2.50;;;;;;;;;;6313215;22;20003;-92
2022/08/06 21:02:41;;;;;;;2.17;2.08;;;;;;;;;;6312778;22;20007;-93
2022/08/06 21:05:09;;;;;;;2.50;2.30;;;;;;;;;;6312328;22;20010;-91
2022/08/06 21:07:35;;;;;;;2.85;2.30;;;;;;;;;;6312709;22;20003;-92
2022/08/06 21:10:01;;;;;;;2.90;2.20;;;;;;;;;;6312898;22;20006;-93
2022/08/06 21:12:26;;;;;;;4.85;2.30;;;;;;;;;;6314016;22;20394;-93
2022/08/06 21:14:52;;;;;;;6.75;2.95;;;;;;;;;;6315202;22;20082;-93
2022/08/06 21:17:17;;;;;;;3.95;2.50;;;;;;;;;;6314968;22;20077;-93
2022/08/06 21:19:43;;;;;;;3.42;2.60;;;;;;;;;;6314779;22;20003;-92
2022/08/06 21:22:09;;;;;;;2.70;2.50;;;;;;;;;;6314668;22;20048;-93
2022/08/06 21:24:35;;;;;;;2.85;2.65;;;;;;;;;;6314953;22;19999;-93
2022/08/06 21:27:00;;;;;;;3.35;2.83;;;;;;;;;;6314875;22;20380;-92
2022/08/06 21:29:26;;;;;;;2.90;2.65;;;;;;;;;;6341682;22;19998;-90
2022/08/06 21:31:52;;;;;;;3.25;2.72;;;;;;;;;;6341105;22;20440;-83
